Time;durP1;ratioP1;P1;durP2;ratioP2;P2;SDS_P1;SDS_P2;PMS_P1;PMS_P2;Temp;Humidity;BMP_temperature;BMP_pressure;BME280_temperature;BME280_humidity;BME280_pressure;Samples;Min_cycle;Max_cycle;Signal;HPM_P1;HPM_P2
2023/05/13 00:00:33;;;;;;;9.15;5.43;;;13.00;99.90;;;;;;4983129;28;20452;-77
2023/05/13 00:02:59;;;;;;;14.68;5.40;;;13.10;99.90;;;;;;4983896;28;20046;-76
2023/05/13 00:05:24;;;;;;;9.00;6.32;;;13.00;99.90;;;;;;4984019;28;20046;-77
2023/05/13 00:07:50;;;;;;;9.05;5.45;;;13.00;99.90;;;;;;4983179;28;20449;-76
2023/05/13 00:10:16;;;;;;;8.50;4.97;;;13.00;99.90;;;;;;4982050;28;20052;-77
2023/05/13 00:12:41;;;;;;;7.68;5.40;;;13.00;99.90;;;;;;4981669;28;20144;-77
2023/05/13 00:15:07;;;;;;;10.73;6.10;;;13.00;99.90;;;;;;5001155;28;20058;-77
2023/05/13 00:17:33;;;;;;;9.95;5.38;;;13.00;99.90;;;;;;5002566;28;20041;-77
2023/05/13 00:19:58;;;;;;;10.10;5.82;;;13.00;99.90;;;;;;5003116;28;20038;-77
2023/05/13 00:22:24;;;;;;;8.82;6.40;;;13.00;99.90;;;;;;5003163;28;20034;-77
2023/05/13 00:24:49;;;;;;;7.40;4.72;;;13.00;99.90;;;;;;5001413;28;20555;-77
2023/05/13 00:27:15;;;;;;;8.63;4.78;;;12.90;99.90;;;;;;5002967;28;20460;-77
2023/05/13 00:29:41;;;;;;;13.27;4.68;;;12.90;99.90;;;;;;5003094;28;20042;-77
2023/05/13 00:32:06;;;;;;;10.52;5.53;;;12.90;99.90;;;;;;5001293;28;20042;-77
2023/05/13 00:34:32;;;;;;;8.20;5.63;;;12.90;99.90;;;;;;5002978;28;20085;-77
2023/05/13 00:36:57;;;;;;;7.20;4.97;;;12.90;99.90;;;;;;5001549;28;20046;-77
2023/05/13 00:39:23;;;;;;;12.00;5.75;;;12.90;99.90;;;;;;5000808;28;20462;-77
2023/05/13 00:41:49;;;;;;;9.80;5.63;;;12.80;99.90;;;;;;5002380;28;20038;-77
2023/05/13 00:44:14;;;;;;;5.88;5.03;;;12.80;99.90;;;;;;5002941;28;20121;-77
2023/05/13 00:46:40;;;;;;;7.70;4.93;;;12.80;99.90;;;;;;4982167;28;20057;-76
2023/05/13 00:49:06;;;;;;;7.28;5.20;;;12.80;99.90;;;;;;4981953;28;20110;-77
2023/05/13 00:51:32;;;;;;;10.75;5.95;;;12.80;99.90;;;;;;4982837;28;20394;-77
2023/05/13 00:54:00;;;;;;;9.25;5.45;;;12.70;99.90;;;;;;4983147;28;20422;-77
2023/05/13 00:56:26;;;;;;;9.50;5.35;;;12.70;99.90;;;;;;4986350;28;20444;-77
2023/05/13 00:58:52;;;;;;;13.18;5.45;;;12.70;99.90;;;;;;4986991;28;20100;-76
2023/05/13 01:01:48;;;;;;;8.88;5.95;;;12.70;99.90;;;;;;4985177;28;20046;-76
2023/05/13 01:04:32;;;;;;;10.63;4.85;;;12.70;99.90;;;;;;5093887;22;20053;-76
2023/05/13 01:07:35;;;;;;;9.77;4.78;;;12.70;99.90;;;;;;5025589;28;20037;-76
2023/05/13 01:10:31;;;;;;;7.75;5.40;;;12.60;99.90;;;;;;5004108;28;20590;-76
2023/05/13 01:13:07;;;;;;;7.72;4.88;;;12.60;99.90;;;;;;5014146;28;20060;-76
2023/05/13 01:15:36;;;;;;;6.72;4.95;;;12.60;99.90;;;;;;5004737;28;20180;-76
2023/05/13 01:18:10;;;;;;;8.48;5.13;;;12.60;99.90;;;;;;5006095;28;20097;-76
2023/05/13 01:20:39;;;;;;;9.45;5.45;;;12.60;99.90;;;;;;5005948;28;20038;-76
2023/05/13 01:23:06;;;;;;;7.38;5.28;;;12.60;99.90;;;;;;5005547;28;20129;-76
2023/05/13 01:25:32;;;;;;;10.18;5.60;;;12.50;99.90;;;;;;5019858;28;20140;-76
2023/05/13 01:27:58;;;;;;;9.13;5.35;;;12.50;99.90;;;;;;5025561;28;20077;-76
2023/05/13 01:30:24;;;;;;;11.05;4.68;;;12.50;99.90;;;;;;5025537;28;20099;-76
2023/05/13 01:32:51;;;;;;;10.75;6.45;;;12.50;99.90;;;;;;5024023;28;20107;-76
2023/05/13 01:35:17;;;;;;;6.85;5.82;;;12.50;99.90;;;;;;5023657;28;20053;-76
2023/05/13 01:37:43;;;;;;;7.88;5.65;;;12.40;99.90;;;;;;5023606;28;20069;-76
2023/05/13 01:40:09;;;;;;;8.35;5.82;;;12.40;99.90;;;;;;5023927;28;20861;-76
2023/05/13 01:42:35;;;;;;;9.60;4.95;;;12.40;99.90;;;;;;5025303;28;20068;-76
2023/05/13 01:45:01;;;;;;;6.18;4.95;;;12.40;99.90;;;;;;5024700;28;20042;-76
2023/05/13 01:47:27;;;;;;;9.88;5.30;;;12.40;99.90;;;;;;5024990;28;20037;-76
2023/05/13 01:49:53;;;;;;;7.28;4.70;;;12.40;99.90;;;;;;5024054;28;20485;-76
2023/05/13 01:52:18;;;;;;;8.88;4.10;;;12.40;99.90;;;;;;5024664;28;20033;-76
2023/05/13 01:54:44;;;;;;;8.30;4.53;;;12.30;99.90;;;;;;4997395;28;20555;-76
2023/05/13 01:57:10;;;;;;;7.70;4.50;;;12.30;99.90;;;;;;5003833;28;20080;-76
2023/05/13 01:59:35;;;;;;;8.40;4.88;;;12.30;99.90;;;;;;5020655;28;20049;-76
2023/05/13 02:02:01;;;;;;;6.97;4.55;;;12.30;99.90;;;;;;5024470;28;20117;-76
2023/05/13 02:04:26;;;;;;;5.82;3.95;;;12.30;99.90;;;;;;5024382;28;20053;-76
2023/05/13 02:06:52;;;;;;;7.78;5.22;;;12.30;99.90;;;;;;5022423;28;20100;-76
2023/05/13 02:09:18;;;;;;;9.68;5.70;;;12.30;99.90;;;;;;5022438;28;20033;-76
2023/05/13 02:11:45;;;;;;;6.30;4.68;;;12.30;99.90;;;;;;5015756;28;20049;-76
2023/05/13 02:14:10;;;;;;;6.63;4.65;;;12.20;99.90;;;;;;5023430;28;20537;-76
2023/05/13 02:16:36;;;;;;;10.27;5.43;;;12.30;99.90;;;;;;5023925;28;20029;-76
2023/05/13 02:19:02;;;;;;;7.47;5.68;;;12.20;99.90;;;;;;5024307;28;20048;-76
2023/05/13 02:21:27;;;;;;;7.78;4.35;;;12.20;99.90;;;;;;5022516;28;20120;-76
2023/05/13 02:23:53;;;;;;;7.78;5.15;;;12.20;99.90;;;;;;5023814;28;20041;-76
2023/05/13 02:26:18;;;;;;;10.40;5.32;;;12.10;99.90;;;;;;5022352;28;20053;-76
2023/05/13 02:28:44;;;;;;;9.73;6.22;;;12.10;99.90;;;;;;5022605;28;20526;-76
2023/05/13 02:31:09;;;;;;;8.10;4.95;;;12.10;99.90;;;;;;5022795;28;20069;-76
2023/05/13 02:33:35;;;;;;;11.10;5.20;;;12.10;99.90;;;;;;5023652;28;20087;-76
2023/05/13 02:36:00;;;;;;;7.50;5.72;;;12.00;99.90;;;;;;5024041;28;20053;-76
2023/05/13 02:38:26;;;;;;;7.35;5.07;;;12.10;99.90;;;;;;5015421;28;20116;-76
2023/05/13 02:40:51;;;;;;;13.80;6.28;;;12.00;99.90;;;;;;5006984;28;20492;-76
2023/05/13 02:43:18;;;;;;;17.27;6.13;;;12.00;99.90;;;;;;5021849;28;20451;-76
2023/05/13 02:45:46;;;;;;;10.27;5.68;;;12.00;99.90;;;;;;5023823;28;20091;-76
2023/05/13 02:48:12;;;;;;;10.52;5.80;;;12.00;99.90;;;;;;5022427;28;20045;-76
2023/05/13 02:50:39;;;;;;;8.82;5.50;;;12.00;99.90;;;;;;5023472;28;20577;-76
2023/05/13 02:53:04;;;;;;;11.40;6.20;;;12.00;99.90;;;;;;5021734;28;20049;-76
2023/05/13 02:55:30;;;;;;;14.30;6.53;;;11.90;99.90;;;;;;5023063;28;20616;-76
2023/05/13 02:57:56;;;;;;;10.30;6.50;;;11.90;99.90;;;;;;5007039;28;20092;-76
2023/05/13 03:00:21;;;;;;;9.32;5.72;;;11.90;99.90;;;;;;5006219;28;20042;-76
2023/05/13 03:02:47;;;;;;;8.15;5.57;;;11.90;99.90;;;;;;5020606;28;20523;-76
2023/05/13 03:05:12;;;;;;;8.32;5.80;;;11.90;99.90;;;;;;5021246;28;20510;-76
2023/05/13 03:07:38;;;;;;;12.43;5.63;;;11.80;99.90;;;;;;5022264;28;20132;-76
2023/05/13 03:10:04;;;;;;;14.50;6.13;;;11.80;99.90;;;;;;5019798;28;20049;-76
2023/05/13 03:12:30;;;;;;;9.57;5.88;;;11.80;99.90;;;;;;5013856;28;20033;-76
2023/05/13 03:14:56;;;;;;;9.68;6.20;;;11.80;99.90;;;;;;5007910;28;20116;-76
2023/05/13 03:17:21;;;;;;;9.45;6.22;;;11.80;99.90;;;;;;5014461;28;20438;-76
2023/05/13 03:19:47;;;;;;;11.68;6.38;;;11.80;99.90;;;;;;5022968;28;20041;-76
2023/05/13 03:22:13;;;;;;;10.50;6.18;;;11.80;99.90;;;;;;5023129;28;20041;-75
2023/05/13 03:24:38;;;;;;;9.13;5.93;;;11.80;99.90;;;;;;5022171;28;20133;-76
2023/05/13 03:27:04;;;;;;;13.52;6.15;;;11.80;99.90;;;;;;5023516;28;20065;-76
2023/05/13 03:29:30;;;;;;;10.43;6.30;;;11.80;99.90;;;;;;5022548;28;20068;-76
2023/05/13 03:31:55;;;;;;;11.70;6.80;;;11.80;99.90;;;;;;5021993;28;20764;-76
2023/05/13 03:34:21;;;;;;;12.68;6.20;;;11.70;99.90;;;;;;5023525;28;20081;-76
2023/05/13 03:36:46;;;;;;;14.23;7.40;;;11.70;99.90;;;;;;5021706;28;20057;-76
2023/05/13 03:39:12;;;;;;;13.60;7.40;;;11.70;99.90;;;;;;5020634;28;20052;-76
2023/05/13 03:41:38;;;;;;;15.52;7.43;;;11.70;99.90;;;;;;5022949;28;20078;-76
2023/05/13 03:44:03;;;;;;;10.60;6.57;;;11.70;99.90;;;;;;5023138;28;20507;-76
2023/05/13 03:46:29;;;;;;;16.30;7.55;;;11.70;99.90;;;;;;5020761;28;20403;-76
2023/05/13 03:48:54;;;;;;;11.10;7.63;;;11.60;99.90;;;;;;5022464;28;20077;-76
2023/05/13 03:51:21;;;;;;;12.48;7.03;;;11.70;99.90;;;;;;5022619;28;20415;-76
2023/05/13 03:53:46;;;;;;;12.85;7.80;;;11.70;99.90;;;;;;5022344;28;20041;-76
2023/05/13 03:56:12;;;;;;;11.68;6.05;;;11.70;99.90;;;;;;5021069;28;20080;-76
2023/05/13 03:58:38;;;;;;;11.30;6.80;;;11.60;99.90;;;;;;5021338;28;20045;-76
2023/05/13 04:01:04;;;;;;;10.25;5.40;;;11.60;99.90;;;;;;5021322;28;20052;-76
2023/05/13 04:03:30;;;;;;;9.45;5.55;;;11.60;99.90;;;;;;5021050;28;20042;-76
2023/05/13 04:05:55;;;;;;;11.98;6.85;;;11.60;99.90;;;;;;5022729;28;20051;-76
2023/05/13 04:08:21;;;;;;;12.27;5.53;;;11.60;99.90;;;;;;5022450;28;20099;-76
2023/05/13 04:10:47;;;;;;;10.27;6.25;;;11.60;99.90;;;;;;5022191;28;20041;-75
2023/05/13 04:13:12;;;;;;;8.45;5.40;;;11.60;99.90;;;;;;5021415;28;20094;-76
2023/05/13 04:15:38;;;;;;;16.52;5.47;;;11.60;99.90;;;;;;5022746;28;20476;-76
2023/05/13 04:18:03;;;;;;;8.05;4.70;;;11.60;99.90;;;;;;5022496;28;20041;-76
2023/05/13 04:20:29;;;;;;;10.52;5.50;;;11.60;99.90;;;;;;5020635;28;20415;-76
2023/05/13 04:22:55;;;;;;;11.05;6.28;;;11.60;99.90;;;;;;5021992;28;20041;-77
2023/05/13 04:25:20;;;;;;;9.32;5.20;;;11.60;99.90;;;;;;5023275;28;20088;-76
2023/05/13 04:27:46;;;;;;;10.85;5.00;;;11.60;99.90;;;;;;5014309;28;20081;-76
2023/05/13 04:30:12;;;;;;;7.20;4.40;;;11.70;99.90;;;;;;5006044;28;20145;-76
2023/05/13 04:32:38;;;;;;;13.60;4.68;;;11.60;99.90;;;;;;5017896;28;20073;-76
2023/05/13 04:35:06;;;;;;;6.82;3.78;;;11.70;99.90;;;;;;5025257;28;20473;-76
2023/05/13 04:37:32;;;;;;;6.95;3.90;;;11.60;99.90;;;;;;5008353;28;20107;-76
2023/05/13 04:39:58;;;;;;;7.90;4.28;;;11.70;99.90;;;;;;5007685;28;20516;-76
2023/05/13 04:42:23;;;;;;;5.90;4.75;;;11.70;99.90;;;;;;5026606;28;20055;-76
2023/05/13 04:44:49;;;;;;;6.70;3.72;;;11.70;99.90;;;;;;5024166;28;20129;-76
2023/05/13 04:47:15;;;;;;;5.10;4.22;;;11.70;99.90;;;;;;5024921;28;20029;-76
2023/05/13 04:49:41;;;;;;;7.55;4.15;;;11.70;99.90;;;;;;5025611;28;20041;-76
2023/05/13 04:52:07;;;;;;;4.38;3.42;;;11.70;99.90;;;;;;5024788;28;20419;-76
2023/05/13 04:54:34;;;;;;;6.03;3.45;;;11.80;99.90;;;;;;5024644;28;20553;-76
2023/05/13 04:57:01;;;;;;;5.50;3.45;;;11.80;99.90;;;;;;5026268;28;20041;-76
2023/05/13 04:59:26;;;;;;;5.63;4.35;;;11.80;99.90;;;;;;5025621;28;20050;-76
2023/05/13 05:01:52;;;;;;;5.60;4.20;;;11.80;99.90;;;;;;5024812;28;20040;-76
2023/05/13 05:04:17;;;;;;;6.47;3.65;;;11.90;99.90;;;;;;5025632;28;20053;-76
2023/05/13 05:06:43;;;;;;;5.32;3.53;;;11.90;99.90;;;;;;5024406;28;20041;-76
2023/05/13 05:09:09;;;;;;;5.10;3.95;;;11.90;99.90;;;;;;5023378;28;20492;-76
2023/05/13 05:11:34;;;;;;;7.50;3.72;;;12.00;99.90;;;;;;5015142;28;20048;-76
2023/05/13 05:14:00;;;;;;;7.28;3.95;;;12.00;99.90;;;;;;5024348;28;20050;-76
2023/05/13 05:16:25;;;;;;;4.50;3.53;;;12.00;99.90;;;;;;5024811;28;20332;-76
2023/05/13 05:18:51;;;;;;;6.15;3.58;;;12.00;99.90;;;;;;5025111;28;20132;-76
2023/05/13 05:21:17;;;;;;;4.45;3.28;;;12.10;99.90;;;;;;5025294;28;20052;-76
2023/05/13 05:23:43;;;;;;;5.30;4.07;;;12.10;99.90;;;;;;5024410;28;20079;-76
2023/05/13 05:26:08;;;;;;;5.78;3.17;;;12.10;99.90;;;;;;5024196;28;20669;-76
2023/05/13 05:28:35;;;;;;;7.28;3.65;;;12.10;99.90;;;;;;5025462;28;20077;-76
2023/05/13 05:31:01;;;;;;;4.22;3.28;;;12.20;99.90;;;;;;5024322;28;20720;-76
2023/05/13 05:33:27;;;;;;;6.90;3.28;;;12.20;99.90;;;;;;5024861;28;20049;-76
2023/05/13 05:35:53;;;;;;;5.53;3.53;;;12.20;99.90;;;;;;5026156;28;20041;-76
2023/05/13 05:38:18;;;;;;;5.70;3.13;;;12.20;99.90;;;;;;5024016;28;20050;-76
2023/05/13 05:40:45;;;;;;;5.43;4.10;;;12.30;99.90;;;;;;5023269;28;20042;-76
2023/05/13 05:43:11;;;;;;;4.35;3.40;;;12.30;99.90;;;;;;5023370;28;20737;-76
2023/05/13 05:45:39;;;;;;;5.43;3.33;;;12.30;99.90;;;;;;5025047;28;20153;-76
2023/05/13 05:48:05;;;;;;;6.20;3.63;;;12.40;99.90;;;;;;5024799;28;20068;-76
2023/05/13 05:50:32;;;;;;;5.07;3.55;;;12.40;99.90;;;;;;5023356;28;20075;-76
2023/05/13 05:52:58;;;;;;;5.82;4.20;;;12.40;99.90;;;;;;5003381;28;20045;-76
2023/05/13 05:55:26;;;;;;;4.22;3.00;;;12.50;99.90;;;;;;5021491;28;20049;-76
2023/05/13 05:57:52;;;;;;;7.18;3.53;;;12.50;99.90;;;;;;5005814;28;20038;-76
2023/05/13 06:00:17;;;;;;;6.22;3.40;;;12.50;99.90;;;;;;5012014;28;20132;-76
2023/05/13 06:02:43;;;;;;;7.32;3.72;;;12.50;99.90;;;;;;5024178;28;20480;-76
2023/05/13 06:05:09;;;;;;;4.05;3.22;;;12.50;99.90;;;;;;5016962;28;20184;-76
2023/05/13 06:07:34;;;;;;;4.35;3.85;;;12.60;99.90;;;;;;5023247;28;20033;-77
2023/05/13 06:10:00;;;;;;;4.10;3.33;;;12.70;99.90;;;;;;5022927;28;20059;-76
2023/05/13 06:12:26;;;;;;;5.13;3.17;;;12.70;99.90;;;;;;5024516;28;20558;-76
2023/05/13 06:14:51;;;;;;;5.97;3.75;;;12.80;99.90;;;;;;5024798;28;20060;-76
2023/05/13 06:17:17;;;;;;;5.65;3.35;;;12.80;99.90;;;;;;5024165;28;20057;-77
2023/05/13 06:19:42;;;;;;;6.00;3.13;;;12.80;99.90;;;;;;5022503;28;20041;-76
2023/05/13 06:22:09;;;;;;;7.15;2.65;;;12.90;99.90;;;;;;5022229;28;20042;-76
2023/05/13 06:24:35;;;;;;;5.60;2.83;;;12.90;99.90;;;;;;5021494;28;20049;-76
2023/05/13 06:27:01;;;;;;;5.50;2.92;;;12.90;99.90;;;;;;5023652;28;20041;-76
2023/05/13 06:29:27;;;;;;;8.40;3.47;;;12.90;99.90;;;;;;5018424;28;20100;-77
2023/05/13 06:31:53;;;;;;;5.13;3.25;;;13.00;99.90;;;;;;5018803;28;20490;-76
2023/05/13 06:34:18;;;;;;;6.07;3.53;;;13.00;99.90;;;;;;5022220;28;20045;-76
2023/05/13 06:36:44;;;;;;;5.50;3.72;;;13.10;99.90;;;;;;5021889;28;20479;-76
2023/05/13 06:39:11;;;;;;;4.55;3.25;;;13.10;99.90;;;;;;5020663;28;20506;-76
2023/05/13 06:41:37;;;;;;;6.72;3.85;;;13.20;99.90;;;;;;5023984;28;20042;-76
2023/05/13 06:44:03;;;;;;;4.93;3.88;;;13.20;99.90;;;;;;5021093;28;20049;-76
2023/05/13 06:46:29;;;;;;;5.47;3.33;;;13.30;99.90;;;;;;5022403;28;20060;-76
2023/05/13 06:48:56;;;;;;;7.00;3.55;;;13.30;99.90;;;;;;5023732;28;20480;-76
2023/05/13 06:51:22;;;;;;;5.97;3.15;;;13.30;99.90;;;;;;5023819;28;20041;-75
2023/05/13 06:53:47;;;;;;;4.53;3.00;;;13.40;99.90;;;;;;5021137;28;20056;-77
2023/05/13 06:56:13;;;;;;;5.55;3.58;;;13.40;99.90;;;;;;5010894;28;20053;-78
2023/05/13 06:58:39;;;;;;;6.70;4.18;;;13.50;99.90;;;;;;5015715;28;20037;-74
2023/05/13 07:01:05;;;;;;;4.70;3.03;;;13.50;99.90;;;;;;5010202;28;20041;-75
2023/05/13 07:03:30;;;;;;;5.13;3.60;;;13.50;99.90;;;;;;5023056;28;20133;-76
2023/05/13 07:05:56;;;;;;;4.93;3.35;;;13.60;99.90;;;;;;5022180;28;20128;-77
2023/05/13 07:08:22;;;;;;;5.97;3.28;;;13.60;99.90;;;;;;5009015;28;20038;-77
2023/05/13 07:10:47;;;;;;;5.35;3.58;;;13.70;99.90;;;;;;5010612;28;20064;-77
2023/05/13 07:13:13;;;;;;;6.30;3.15;;;13.70;99.90;;;;;;5022087;28;20049;-76
2023/05/13 07:15:39;;;;;;;6.85;3.28;;;13.70;99.90;;;;;;5023056;28;20064;-78
2023/05/13 07:18:06;;;;;;;5.10;3.30;;;13.80;99.90;;;;;;5023300;28;20046;-78
2023/05/13 07:20:31;;;;;;;7.60;3.45;;;13.80;99.90;;;;;;5021743;28;20052;-78
2023/05/13 07:22:57;;;;;;;5.00;3.53;;;13.80;99.90;;;;;;5021204;28;20049;-77
2023/05/13 07:25:23;;;;;;;4.88;2.92;;;13.90;99.90;;;;;;5023354;28;20077;-77
2023/05/13 07:27:49;;;;;;;4.45;3.50;;;13.90;99.90;;;;;;5022739;28;20034;-77
2023/05/13 07:30:14;;;;;;;8.90;3.50;;;14.00;99.90;;;;;;5021288;28;20053;-77
2023/05/13 07:32:40;;;;;;;6.57;3.78;;;14.00;99.90;;;;;;5008952;28;20049;-77
2023/05/13 07:35:06;;;;;;;4.28;3.08;;;14.00;99.90;;;;;;5002630;28;20046;-77
2023/05/13 07:37:32;;;;;;;5.22;3.20;;;14.10;99.90;;;;;;5019163;28;20140;-76
2023/05/13 07:39:58;;;;;;;5.75;3.53;;;14.10;99.90;;;;;;5022910;28;20527;-76
2023/05/13 07:42:24;;;;;;;5.43;4.18;;;14.20;99.90;;;;;;4989629;28;20042;-77
2023/05/13 07:44:51;;;;;;;8.60;3.78;;;14.20;99.90;;;;;;5002618;28;20131;-76
2023/05/13 07:47:17;;;;;;;3.40;3.05;;;14.20;99.90;;;;;;5017383;28;20630;-77
2023/05/13 07:49:43;;;;;;;5.60;3.08;;;14.30;99.90;;;;;;5002578;28;20145;-77
2023/05/13 07:52:08;;;;;;;5.70;2.97;;;14.30;99.90;;;;;;5020664;28;20039;-76
2023/05/13 07:54:34;;;;;;;4.97;3.03;;;14.30;99.90;;;;;;5017371;28;20037;-77
2023/05/13 07:56:59;;;;;;;6.88;3.45;;;14.40;99.90;;;;;;5022396;28;20046;-77
2023/05/13 07:59:25;;;;;;;6.32;3.88;;;14.40;99.90;;;;;;5023355;28;20061;-76
2023/05/13 08:01:51;;;;;;;4.30;3.50;;;14.50;99.90;;;;;;5022967;28;20037;-76
2023/05/13 08:04:17;;;;;;;4.78;3.63;;;14.50;99.90;;;;;;5024040;28;20764;-75
2023/05/13 08:06:42;;;;;;;3.58;2.72;;;14.50;99.90;;;;;;5015076;28;20129;-75
2023/05/13 08:09:11;;;;;;;4.43;3.40;;;14.60;99.90;;;;;;5024499;28;20497;-76
2023/05/13 08:11:36;;;;;;;4.25;3.38;;;14.60;99.90;;;;;;5020751;28;20041;-76
2023/05/13 08:14:03;;;;;;;5.30;3.97;;;14.60;99.90;;;;;;5015589;28;20056;-75
2023/05/13 08:16:28;;;;;;;5.10;3.88;;;14.70;99.90;;;;;;5008552;28;20100;-76
2023/05/13 08:18:54;;;;;;;3.65;2.97;;;14.70;99.90;;;;;;5021090;28;20084;-76
2023/05/13 08:21:20;;;;;;;5.05;3.33;;;14.70;99.90;;;;;;5012002;28;20049;-76
2023/05/13 08:23:45;;;;;;;5.30;3.30;;;14.80;99.90;;;;;;5005955;28;20045;-76
2023/05/13 08:26:11;;;;;;;4.57;3.80;;;14.80;99.90;;;;;;5026487;28;20049;-76
2023/05/13 08:28:36;;;;;;;5.57;3.25;;;14.80;99.90;;;;;;5026093;28;20065;-76
2023/05/13 08:31:02;;;;;;;6.13;4.13;;;14.80;99.90;;;;;;5020775;28;20490;-75
2023/05/13 08:33:31;;;;;;;5.30;3.10;;;14.80;99.90;;;;;;5009846;28;20068;-75
2023/05/13 08:35:59;;;;;;;3.13;2.83;;;14.90;99.90;;;;;;5010049;28;20403;-75
2023/05/13 08:38:24;;;;;;;4.32;3.40;;;14.90;99.90;;;;;;5024074;28;20113;-75
2023/05/13 08:40:50;;;;;;;6.22;3.30;;;14.90;99.90;;;;;;5025397;28;20125;-76
2023/05/13 08:43:16;;;;;;;5.05;3.78;;;15.00;99.90;;;;;;5009001;28;20077;-76
2023/05/13 08:45:45;;;;;;;6.00;4.05;;;15.00;99.90;;;;;;5024557;28;20052;-75
2023/05/13 08:48:14;;;;;;;8.20;3.90;;;15.10;99.90;;;;;;5006480;28;20042;-75
2023/05/13 08:50:40;;;;;;;5.90;3.50;;;15.10;99.90;;;;;;5021179;28;20053;-75
2023/05/13 08:53:06;;;;;;;6.38;3.60;;;15.10;99.90;;;;;;5024299;28;20034;-76
2023/05/13 08:55:32;;;;;;;6.10;3.67;;;15.20;99.90;;;;;;5007697;28;20046;-75
2023/05/13 08:57:57;;;;;;;5.13;3.65;;;15.20;99.90;;;;;;5024440;28;20526;-75
2023/05/13 09:00:24;;;;;;;4.68;3.47;;;15.30;99.90;;;;;;4988840;28;20097;-76
2023/05/13 09:02:52;;;;;;;5.70;3.53;;;15.30;99.90;;;;;;5017186;28;20081;-76
2023/05/13 09:05:19;;;;;;;4.68;3.10;;;15.30;99.90;;;;;;5019552;28;20530;-76
2023/05/13 09:07:45;;;;;;;5.75;3.70;;;15.40;99.90;;;;;;5024575;28;20045;-75
2023/05/13 09:10:10;;;;;;;5.00;3.40;;;15.40;99.90;;;;;;5024168;28;20076;-76
2023/05/13 09:12:48;;;;;;;5.13;3.40;;;15.40;99.90;;;;;;5022821;28;20042;-76
2023/05/13 09:15:21;;;;;;;5.13;3.42;;;15.40;99.90;;;;;;5024310;28;20053;-76
2023/05/13 09:17:57;;;;;;;4.30;3.28;;;15.50;99.90;;;;;;5027795;28;20123;-76
2023/05/13 09:20:24;;;;;;;6.90;3.10;;;15.50;99.90;;;;;;5044760;28;20045;-80
2023/05/13 09:23:07;;;;;;;7.75;3.47;;;15.50;99.90;;;;;;5043987;28;20045;-78
2023/05/13 09:25:32;;;;;;;;;;;15.50;99.90;;;;;;5020085;28;20045;-78
2023/05/13 09:28:03;;;;;;;5.25;3.47;;;15.60;99.90;;;;;;5025636;28;19927;-77
2023/05/13 09:30:32;;;;;;;6.07;3.85;;;15.60;99.90;;;;;;5025346;28;20537;-78
2023/05/13 09:33:12;;;;;;;4.68;3.42;;;15.60;99.90;;;;;;5023580;28;20081;-79
2023/05/13 09:35:52;;;;;;;6.22;3.28;;;15.70;99.90;;;;;;5006419;28;20571;-79
2023/05/13 09:38:20;;;;;;;5.75;3.90;;;15.70;99.90;;;;;;5023528;28;20045;-79
2023/05/13 09:40:49;;;;;;;3.75;3.25;;;15.70;99.90;;;;;;5022609;28;20045;-79
2023/05/13 09:43:15;;;;;;;7.60;3.58;;;15.70;99.90;;;;;;5024325;28;20085;-78
2023/05/13 09:45:41;;;;;;;5.88;3.42;;;15.80;99.90;;;;;;5020432;28;20041;-80
2023/05/13 09:48:07;;;;;;;6.47;3.83;;;15.80;99.90;;;;;;5018874;28;20369;-80
2023/05/13 09:50:33;;;;;;;5.80;3.92;;;15.80;99.90;;;;;;5015974;28;20050;-80
2023/05/13 09:53:10;;;;;;;5.72;3.75;;;15.90;99.90;;;;;;5022222;28;20041;-80
2023/05/13 09:55:36;;;;;;;6.28;4.07;;;15.90;99.90;;;;;;5001393;28;20129;-79
2023/05/13 09:58:08;;;;;;;6.03;3.80;;;15.90;99.90;;;;;;5013997;28;20137;-80
2023/05/13 10:00:34;;;;;;;8.77;4.65;;;16.00;99.90;;;;;;5023670;28;20480;-80
2023/05/13 10:03:01;;;;;;;7.03;4.07;;;16.00;99.90;;;;;;5024377;28;20488;-85
2023/05/13 10:05:26;;;;;;;8.82;4.10;;;16.00;99.90;;;;;;5023823;28;20119;-83
2023/05/13 10:07:53;;;;;;;6.88;4.18;;;16.00;99.90;;;;;;5020538;28;20041;-83
2023/05/13 10:10:20;;;;;;;8.52;4.20;;;16.00;99.90;;;;;;5021369;28;20423;-85
2023/05/13 10:12:47;;;;;;;8.75;4.38;;;16.10;99.90;;;;;;5005050;28;20058;-83
2023/05/13 10:15:13;;;;;;;6.18;3.60;;;16.10;99.90;;;;;;5020873;28;20492;-83
2023/05/13 10:17:41;;;;;;;6.78;4.55;;;16.10;99.90;;;;;;5017844;28;20052;-80
2023/05/13 10:20:07;;;;;;;6.45;4.45;;;16.10;99.90;;;;;;5021243;28;20040;-77
2023/05/13 10:22:33;;;;;;;5.75;4.47;;;16.20;99.90;;;;;;5021724;28;20124;-83
2023/05/13 10:25:00;;;;;;;5.75;3.78;;;16.20;99.90;;;;;;5016818;28;20064;-84
2023/05/13 10:27:28;;;;;;;4.63;3.55;;;16.30;99.90;;;;;;5021924;28;20053;-83
2023/05/13 10:29:55;;;;;;;6.20;4.38;;;16.30;99.90;;;;;;5019671;28;20045;-83
2023/05/13 10:32:25;;;;;;;5.55;3.70;;;16.30;99.90;;;;;;5024941;28;20044;-80
2023/05/13 10:34:55;;;;;;;5.13;4.20;;;16.30;99.90;;;;;;5023861;28;20077;-82
2023/05/13 10:37:33;;;;;;;7.35;4.20;;;16.40;99.90;;;;;;5018594;28;20026;-83
2023/05/13 10:40:36;;;;;;;5.32;3.90;;;16.30;99.90;;;;;;5005425;28;20087;-84
2023/05/13 10:43:14;;;;;;;6.00;4.22;;;16.40;99.90;;;;;;5022686;28;20074;-79
2023/05/13 10:45:44;;;;;;;6.93;4.68;;;16.40;99.90;;;;;;4987057;28;20088;-78
2023/05/13 10:48:14;;;;;;;6.47;4.32;;;16.50;99.90;;;;;;5012932;28;20081;-77
2023/05/13 10:50:56;;;;;;;9.77;4.82;;;16.40;99.90;;;;;;5023773;28;20577;-76
2023/05/13 10:53:27;;;;;;;4.65;3.88;;;16.50;99.90;;;;;;5022933;28;20795;-76
2023/05/13 10:55:58;;;;;;;6.22;4.30;;;16.50;99.90;;;;;;5020922;28;20041;-77
2023/05/13 10:58:37;;;;;;;6.93;4.60;;;16.50;99.90;;;;;;5003281;28;20050;-77
2023/05/13 11:01:15;;;;;;;4.65;4.25;;;16.50;99.90;;;;;;5019601;28;20554;-76
2023/05/13 11:03:49;;;;;;;5.10;4.22;;;16.50;99.90;;;;;;5002300;28;20104;-76
2023/05/13 11:06:18;;;;;;;9.07;4.95;;;16.50;99.90;;;;;;5021219;28;20511;-76
2023/05/13 11:08:49;;;;;;;7.07;4.43;;;16.60;99.90;;;;;;5020529;28;20037;-76
2023/05/13 11:11:22;;;;;;;9.35;4.50;;;16.60;99.90;;;;;;5018120;28;20099;-76
2023/05/13 11:14:14;;;;;;;4.95;4.05;;;16.60;99.90;;;;;;5022701;28;20041;-79
2023/05/13 11:16:47;;;;;;;8.20;4.70;;;16.60;99.90;;;;;;4991680;28;20050;-74
2023/05/13 11:19:26;;;;;;;8.20;4.88;;;16.60;99.90;;;;;;5004509;28;20049;-75
2023/05/13 11:21:56;;;;;;;6.68;4.63;;;16.60;99.90;;;;;;5018827;28;20439;-77
2023/05/13 11:24:23;;;;;;;7.40;4.38;;;16.60;99.90;;;;;;5015654;28;20042;-74
2023/05/13 11:26:55;;;;;;;7.47;4.32;;;16.70;99.90;;;;;;4998326;28;20053;-76
2023/05/13 11:29:34;;;;;;;8.27;5.68;;;16.70;99.90;;;;;;4983325;28;20241;-77
2023/05/13 11:32:02;;;;;;;9.00;4.60;;;16.80;99.90;;;;;;5013717;28;20085;-75
2023/05/13 11:34:29;;;;;;;7.63;5.25;;;16.80;99.90;;;;;;5023888;28;20420;-76
2023/05/13 11:37:03;;;;;;;8.70;4.88;;;16.80;99.90;;;;;;5028227;28;20041;-76
2023/05/13 11:39:32;;;;;;;9.82;5.80;;;16.70;99.90;;;;;;5021025;28;20046;-74
2023/05/13 11:42:00;;;;;;;6.88;5.50;;;16.70;99.90;;;;;;5021030;28;20045;-74
2023/05/13 11:44:26;;;;;;;7.25;5.28;;;16.80;99.90;;;;;;5013019;28;20049;-74
2023/05/13 11:47:00;;;;;;;8.15;4.70;;;16.80;99.90;;;;;;5028002;28;20395;-76
2023/05/13 11:49:42;;;;;;;7.75;5.53;;;16.80;99.90;;;;;;5041033;28;20057;-75
2023/05/13 11:52:10;;;;;;;7.53;4.65;;;16.80;99.90;;;;;;5040663;28;20048;-76
2023/05/13 11:54:48;;;;;;;9.20;5.00;;;16.90;99.90;;;;;;5040470;28;20051;-77
2023/05/13 11:57:24;;;;;;;7.38;5.68;;;16.90;99.90;;;;;;5040337;28;20041;-77
2023/05/13 11:59:58;;;;;;;9.57;4.70;;;16.90;99.90;;;;;;5041972;28;20086;-74
2023/05/13 12:02:24;;;;;;;6.47;4.85;;;16.90;99.90;;;;;;5040953;28;20045;-75
2023/05/13 12:04:51;;;;;;;8.30;4.30;;;17.00;99.90;;;;;;5040569;28;20088;-75
2023/05/13 12:07:21;;;;;;;6.03;4.82;;;17.00;99.90;;;;;;5040612;28;20168;-75
2023/05/13 12:09:48;;;;;;;7.93;4.97;;;17.10;99.90;;;;;;5040535;28;20126;-75
2023/05/13 12:12:15;;;;;;;6.97;4.38;;;17.10;99.90;;;;;;5021912;28;20124;-74
2023/05/13 12:14:42;;;;;;;6.93;4.35;;;17.20;99.90;;;;;;5021267;28;20442;-76
2023/05/13 12:17:08;;;;;;;8.45;4.63;;;17.20;99.90;;;;;;5022546;28;20049;-76
2023/05/13 12:19:34;;;;;;;7.85;4.22;;;17.20;99.90;;;;;;5020734;28;20130;-74
2023/05/13 12:22:01;;;;;;;8.88;5.20;;;17.20;99.90;;;;;;5023188;28;20415;-75
2023/05/13 12:24:32;;;;;;;9.02;5.43;;;17.20;99.90;;;;;;5014358;28;20037;-75
2023/05/13 12:27:06;;;;;;;7.13;4.40;;;17.20;99.90;;;;;;5027760;28;20673;-74
2023/05/13 12:29:41;;;;;;;6.38;4.82;;;17.30;99.90;;;;;;5042317;28;20549;-74
2023/05/13 12:32:08;;;;;;;7.22;5.03;;;17.30;99.90;;;;;;5023440;28;20049;-73
2023/05/13 12:34:34;;;;;;;5.85;3.97;;;17.30;99.90;;;;;;5022499;28;20049;-75
2023/05/13 12:37:13;;;;;;;5.85;3.30;;;17.40;99.90;;;;;;5020204;28;20042;-76
2023/05/13 12:39:40;;;;;;;4.85;4.10;;;17.40;99.90;;;;;;5020377;28;20037;-74
2023/05/13 12:42:12;;;;;;;6.18;3.92;;;17.50;99.90;;;;;;5004462;28;20046;-78
2023/05/13 12:44:38;;;;;;;6.28;4.50;;;17.50;99.90;;;;;;5020111;28;20038;-75
2023/05/13 12:47:05;;;;;;;6.63;4.47;;;17.60;99.90;;;;;;5015725;28;20049;-74